Disclaimer

Please do not use the information listed here in-flight or in-navigation, as they are not provided to us by the airports but are provided by volunteers, so they might be outdated.

Search


Regions


Airport information page

Radio informations:
Tower (TWR) - 118.1 MHz
Ground (GND) - 121.9 MHz
Clearance delivery - 120.7 MHz
Automatic Terminal Information Service (ATIS) - 126.5 MHz
CON - 119.3 MHz
GUATEMALA RDO - 126.9 MHz

Airport informations:
Latitude: 14° 34' 59.78" N
Longitude: 090° 31' 38.91" W
Elevation: 4952 feet - 1509 meters
Operating hours: N/A
Operating agency: Military-civil joint use airport
Timezone: UTC-6
Fuel: Jet A1, without icing nhibitor.

100/130 MIL Spec, low lead, aviation gasoline (BLUE)

Runway information:
01/19 - 9800 x 196 feet< - >2987 x 60 meters

Recent METARs:
MGGT 131400Z 36006KT 8000 BKN015 18/15 Q1027 A3033 HZ
MGGT 131400Z 36006KT 8000 BKN015 18/15 Q1027 A3033 HZ
MGGT 131500Z 36008KT 8000 SCT018 20/15 Q1027 A3033 HZ

Airport on the map: